createdAt,value
2022-11-05T00:01:41.001Z,25.17
2022-11-05T00:04:30.798Z,27.40
2022-11-05T00:07:25.743Z,22.60
2022-11-05T00:09:57.447Z,26.95
2022-11-05T00:12:42.826Z,22.48
2022-11-05T00:15:28.822Z,25.85
2022-11-05T00:17:55.843Z,25.67
2022-11-05T00:20:22.901Z,24.55
2022-11-05T00:23:09.057Z,25.80
2022-11-05T00:25:36.226Z,49.42
2022-11-05T00:28:03.526Z,21.25
2022-11-05T00:30:30.653Z,28.08
2022-11-05T00:33:00.738Z,23.77
2022-11-05T00:35:27.742Z,28.83
2022-11-05T00:37:54.772Z,24.17
2022-11-05T00:40:21.845Z,30.67
2022-11-05T00:43:07.940Z,24.00
2022-11-05T00:45:35.258Z,21.27
2022-11-05T00:48:20.957Z,25.20
2022-11-05T00:50:47.976Z,29.40
2022-11-05T00:53:17.392Z,25.23
2022-11-05T00:55:45.206Z,25.85
2022-11-05T00:58:12.958Z,22.70
2022-11-05T01:00:40.959Z,21.58
2022-11-05T01:03:09.279Z,23.42
2022-11-05T01:05:39.170Z,27.75
2022-11-05T01:08:06.269Z,26.30
2022-11-05T01:10:33.299Z,26.55
2022-11-05T01:13:00.305Z,26.23
2022-11-05T01:15:27.301Z,27.45
2022-11-05T01:17:54.346Z,30.98
2022-11-05T01:20:21.412Z,29.10
2022-11-05T01:22:48.489Z,25.98
2022-11-05T01:25:15.501Z,30.88
2022-11-05T01:27:42.537Z,27.55
2022-11-05T01:30:09.908Z,33.20
2022-11-05T01:32:37.083Z,24.58
2022-11-05T01:35:05.538Z,27.52
2022-11-05T01:37:32.599Z,27.63
2022-11-05T01:39:59.617Z,31.45
2022-11-05T01:42:27.032Z,31.15
2022-11-05T01:44:54.085Z,30.48
2022-11-05T01:47:26.403Z,31.15
2022-11-05T01:49:53.429Z,29.27
2022-11-05T01:52:20.443Z,34.20
2022-11-05T01:54:47.612Z,25.33
2022-11-05T01:57:14.699Z,34.80
2022-11-05T01:59:43.814Z,33.33
2022-11-05T02:02:10.905Z,30.70
2022-11-05T02:04:57.660Z,35.28
2022-11-05T02:07:24.718Z,30.00
2022-11-05T02:09:59.955Z,33.33
2022-11-05T02:12:26.960Z,39.47
2022-11-05T02:14:53.942Z,42.60
2022-11-05T02:17:53.241Z,45.15
2022-11-05T02:20:23.669Z,44.75
2022-11-05T02:22:53.829Z,40.65
2022-11-05T02:25:26.912Z,45.85
2022-11-05T02:28:04.950Z,47.88
2022-11-05T02:30:48.245Z,46.00
2022-11-05T02:33:28.438Z,42.67
2022-11-05T02:36:15.569Z,41.65
2022-11-05T02:38:52.528Z,46.15
2022-11-05T02:41:24.507Z,46.03
2022-11-05T02:44:03.739Z,44.53
2022-11-05T02:46:33.503Z,49.10
2022-11-05T02:49:14.301Z,49.87
2022-11-05T02:51:44.907Z,43.33
2022-11-05T02:56:40.402Z,52.50
2022-11-05T02:59:07.396Z,47.50
2022-11-05T03:01:35.299Z,56.47
2022-11-05T03:04:02.729Z,48.80
2022-11-05T03:06:32.767Z,47.30
2022-11-05T03:08:59.754Z,47.75
2022-11-05T03:11:27.320Z,48.30
2022-11-05T03:13:55.012Z,47.25
2022-11-05T03:16:22.892Z,55.58
2022-11-05T03:18:52.034Z,51.70
2022-11-05T03:21:21.342Z,47.92
2022-11-05T03:24:01.990Z,51.00
2022-11-05T03:29:06.604Z,49.85
2022-11-05T03:31:33.610Z,56.25
2022-11-05T03:34:00.638Z,57.15
2022-11-05T03:36:28.315Z,56.75
2022-11-05T03:38:55.706Z,55.08
2022-11-05T03:41:22.748Z,56.90
2022-11-05T03:43:50.349Z,54.30
2022-11-05T03:46:19.327Z,60.35
2022-11-05T03:48:47.292Z,66.53
2022-11-05T03:51:18.361Z,67.22
2022-11-05T03:53:49.161Z,59.63
2022-11-05T03:56:30.588Z,62.70
2022-11-05T03:58:59.146Z,63.17
2022-11-05T04:01:26.633Z,62.95
2022-11-05T04:03:53.797Z,62.50
2022-11-05T04:06:39.366Z,65.32
2022-11-05T04:09:25.165Z,78.70
2022-11-05T04:12:10.849Z,72.75
2022-11-05T04:14:39.355Z,66.78
2022-11-05T04:17:06.361Z,73.47
2022-11-05T04:19:55.506Z,75.57
2022-11-05T04:22:41.657Z,70.35
2022-11-05T04:25:08.869Z,73.88
2022-11-05T04:27:36.031Z,67.90
2022-11-05T04:30:21.890Z,86.38
2022-11-05T04:32:55.966Z,76.22
2022-11-05T04:35:23.015Z,70.78
2022-11-05T04:37:50.021Z,74.45
2022-11-05T04:40:17.064Z,68.75
2022-11-05T04:42:44.072Z,70.75
2022-11-05T04:45:11.070Z,74.00
2022-11-05T04:47:38.102Z,65.13
2022-11-05T04:50:05.226Z,75.50
2022-11-05T04:52:32.284Z,64.47
2022-11-05T04:54:59.321Z,71.60
2022-11-05T04:57:26.326Z,62.92
2022-11-05T04:59:55.019Z,74.43
2022-11-05T05:02:22.178Z,77.43
2022-11-05T05:04:49.270Z,72.07
2022-11-05T05:07:16.313Z,71.32
2022-11-05T05:09:43.321Z,65.82
2022-11-05T05:12:10.337Z,71.45
2022-11-05T05:14:37.398Z,69.45
2022-11-05T05:17:04.448Z,61.75
2022-11-05T05:19:51.413Z,67.40
2022-11-05T05:22:18.426Z,63.30
2022-11-05T05:24:49.941Z,69.90
2022-11-05T05:27:19.528Z,69.80
2022-11-05T05:29:46.564Z,66.82
2022-11-05T05:32:13.579Z,69.50
2022-11-05T05:34:40.570Z,64.60
2022-11-05T05:37:07.589Z,77.18
2022-11-05T05:39:34.609Z,67.57
2022-11-05T05:42:01.632Z,63.53
2022-11-05T05:44:28.698Z,65.00
2022-11-05T05:46:55.694Z,70.63
2022-11-05T05:49:22.709Z,69.95
2022-11-05T05:51:49.896Z,68.57
2022-11-05T05:54:17.041Z,70.57
2022-11-05T05:56:44.552Z,68.95
2022-11-05T05:59:11.682Z,77.68
2022-11-05T06:01:38.820Z,68.85
2022-11-05T06:04:05.888Z,77.13
2022-11-05T06:06:32.882Z,74.93
2022-11-05T06:08:59.929Z,70.20
2022-11-05T06:11:28.210Z,80.88
2022-11-05T06:13:55.290Z,77.03
2022-11-05T06:16:22.394Z,69.30
2022-11-05T06:18:49.434Z,70.20
2022-11-05T06:21:17.066Z,77.72
2022-11-05T06:23:44.476Z,72.50
2022-11-05T06:26:15.393Z,69.47
2022-11-05T06:28:42.616Z,69.40
2022-11-05T06:31:10.192Z,68.05
2022-11-05T06:33:37.357Z,66.78
2022-11-05T06:36:04.821Z,66.03
2022-11-05T06:38:35.864Z,58.28
2022-11-05T06:41:07.224Z,69.80
2022-11-05T06:43:37.051Z,66.70
2022-11-05T06:46:04.192Z,63.42
2022-11-05T06:48:31.272Z,57.22
2022-11-05T06:50:58.341Z,59.70
2022-11-05T06:53:25.743Z,54.85
2022-11-05T06:55:52.809Z,59.53
2022-11-05T06:58:19.932Z,61.13
2022-11-05T07:00:47.022Z,60.03
2022-11-05T07:03:14.470Z,60.80
2022-11-05T07:05:45.893Z,58.03
2022-11-05T07:08:12.956Z,57.30
2022-11-05T07:10:39.975Z,54.42
2022-11-05T07:13:08.636Z,57.97
2022-11-05T07:15:36.464Z,66.05
2022-11-05T07:18:03.633Z,53.35
2022-11-05T07:20:33.837Z,54.40
2022-11-05T07:23:02.491Z,47.20
2022-11-05T07:25:30.278Z,50.72
2022-11-05T07:27:57.374Z,41.58
2022-11-05T07:30:24.435Z,48.85
2022-11-05T07:32:51.437Z,43.10
2022-11-05T07:35:18.517Z,46.92
2022-11-05T07:37:45.738Z,42.08
2022-11-05T07:40:13.077Z,40.22
2022-11-05T07:42:43.658Z,41.78
2022-11-05T07:47:38.739Z,41.17
2022-11-05T07:50:06.154Z,38.80
2022-11-05T07:52:33.202Z,37.40
2022-11-05T07:55:00.216Z,38.35
2022-11-05T07:57:27.285Z,33.90
2022-11-05T07:59:54.305Z,37.88
2022-11-05T08:02:21.569Z,33.28
2022-11-05T08:04:48.730Z,32.75
2022-11-05T08:07:15.759Z,33.17
2022-11-05T08:09:42.761Z,30.70
2022-11-05T08:12:09.770Z,30.23
2022-11-05T08:14:36.814Z,29.95
2022-11-05T08:17:03.858Z,25.55
2022-11-05T08:19:30.994Z,25.92
2022-11-05T08:21:58.043Z,22.30
2022-11-05T08:24:25.108Z,17.77
2022-11-05T08:26:52.154Z,23.38
2022-11-05T08:29:19.212Z,23.00
2022-11-05T08:31:46.231Z,17.85
2022-11-05T08:34:13.254Z,20.73
2022-11-05T08:36:43.102Z,15.50
2022-11-05T08:39:15.851Z,15.98
2022-11-05T08:41:43.944Z,17.05
2022-11-05T08:44:11.053Z,15.50
2022-11-05T08:46:41.522Z,18.23
2022-11-05T08:49:08.879Z,18.42
2022-11-05T08:51:35.908Z,17.08
2022-11-05T08:54:02.926Z,19.88
2022-11-05T08:56:29.948Z,17.77
2022-11-05T08:58:56.944Z,19.60
2022-11-05T09:01:24.132Z,23.17
2022-11-05T09:03:51.941Z,19.83
2022-11-05T09:06:20.318Z,23.02
2022-11-05T09:08:47.381Z,20.08
2022-11-05T09:11:14.412Z,20.65
2022-11-05T09:13:41.459Z,18.88
2022-11-05T09:16:14.327Z,20.85
2022-11-05T09:18:42.316Z,17.23
2022-11-05T09:21:09.334Z,19.15
2022-11-05T09:23:36.405Z,21.17
2022-11-05T09:26:03.414Z,20.52
2022-11-05T09:28:31.528Z,23.33
2022-11-05T09:30:58.525Z,28.23
2022-11-05T09:33:25.858Z,25.30
2022-11-05T09:35:53.366Z,20.58
2022-11-05T09:38:20.410Z,19.13
2022-11-05T09:40:53.694Z,20.48
2022-11-05T09:43:21.239Z,19.77
2022-11-05T09:45:52.178Z,27.02
2022-11-05T09:48:19.872Z,18.98
2022-11-05T09:50:46.913Z,19.55
2022-11-05T09:53:17.314Z,21.38
2022-11-05T09:55:45.157Z,16.63
2022-11-05T09:58:16.309Z,15.07
2022-11-05T10:00:43.422Z,17.83
2022-11-05T10:03:14.564Z,18.80
2022-11-05T10:05:41.935Z,19.27
2022-11-05T10:08:16.876Z,17.48
2022-11-05T10:10:48.764Z,21.17
2022-11-05T10:13:35.886Z,17.33
2022-11-05T10:16:06.174Z,14.25
2022-11-05T10:18:40.806Z,17.42
2022-11-05T10:21:07.923Z,18.85
2022-11-05T10:23:34.953Z,16.92
2022-11-05T10:26:09.199Z,14.50
2022-11-05T10:28:36.278Z,18.10
2022-11-05T10:31:10.801Z,16.88
2022-11-05T10:33:40.830Z,18.17
2022-11-05T10:36:09.140Z,17.60
2022-11-05T10:38:36.182Z,14.98
2022-11-05T10:41:22.123Z,19.48
2022-11-05T10:43:52.813Z,13.85
2022-11-05T10:46:34.875Z,12.68
2022-11-05T10:49:05.083Z,13.00
2022-11-05T10:51:32.838Z,14.20
2022-11-05T10:54:04.709Z,15.43
2022-11-05T10:56:33.159Z,16.02
2022-11-05T10:59:00.781Z,11.73
2022-11-05T11:01:28.057Z,14.00
2022-11-05T11:04:24.709Z,12.18
2022-11-05T11:06:52.527Z,17.80
2022-11-05T11:09:22.705Z,14.68
2022-11-05T11:11:54.784Z,14.43
2022-11-05T11:14:22.302Z,13.77
2022-11-05T11:16:51.167Z,11.32
2022-11-05T11:19:23.838Z,9.93
2022-11-05T11:22:20.613Z,13.48
2022-11-05T11:24:49.309Z,12.68
2022-11-05T11:27:17.665Z,13.77
2022-11-05T11:29:49.321Z,13.85
2022-11-05T11:32:18.091Z,13.20
2022-11-05T11:34:45.361Z,12.40
2022-11-05T11:37:19.436Z,9.77
2022-11-05T11:39:48.079Z,9.75
2022-11-05T11:42:19.023Z,10.88
2022-11-05T11:44:46.712Z,10.77
2022-11-05T11:47:15.181Z,6.68
2022-11-05T11:49:42.301Z,11.88
2022-11-05T11:52:13.698Z,11.55
2022-11-05T11:54:40.720Z,12.32
2022-11-05T11:57:20.754Z,13.40
2022-11-05T12:00:07.711Z,10.50
2022-11-05T12:02:35.043Z,10.05
2022-11-05T12:05:02.094Z,13.00
2022-11-05T12:07:33.022Z,10.80
2022-11-05T12:10:15.327Z,9.85
2022-11-05T12:12:48.218Z,10.77
2022-11-05T12:15:37.239Z,7.82
2022-11-05T12:18:04.789Z,7.38
2022-11-05T12:20:55.338Z,7.72
2022-11-05T12:23:31.289Z,9.07
2022-11-05T12:25:58.311Z,8.85
2022-11-05T12:29:04.649Z,7.50
2022-11-05T12:31:36.492Z,11.07
2022-11-05T12:34:18.577Z,7.70
2022-11-05T12:37:04.493Z,6.28
2022-11-05T12:39:44.900Z,9.80
2022-11-05T12:42:11.996Z,8.82
2022-11-05T12:44:55.997Z,9.05
2022-11-05T12:47:38.233Z,10.52
2022-11-05T12:50:17.276Z,7.60
2022-11-05T12:52:50.318Z,7.15
2022-11-05T12:55:18.937Z,5.72
2022-11-05T12:57:46.336Z,5.85
2022-11-05T13:00:26.344Z,9.13
2022-11-05T13:02:55.484Z,7.55
2022-11-05T13:05:26.823Z,5.40
2022-11-05T13:07:59.992Z,6.15
2022-11-05T13:10:29.150Z,9.00
2022-11-05T13:13:19.642Z,3.80
2022-11-05T13:18:14.794Z,6.40
2022-11-05T13:20:43.138Z,7.93
2022-11-05T13:23:15.394Z,4.95
2022-11-05T13:25:45.801Z,140.35
2022-11-05T13:28:22.484Z,9.77
2022-11-05T13:30:51.657Z,5.32
2022-11-05T13:33:20.341Z,9.40
2022-11-05T13:36:16.562Z,6.40
2022-11-05T13:39:00.161Z,11.48
2022-11-05T13:41:33.349Z,12.55
2022-11-05T13:44:06.155Z,7.30
2022-11-05T13:46:45.422Z,7.85
2022-11-05T13:49:21.142Z,5.63
2022-11-05T13:51:48.302Z,6.32
2022-11-05T13:54:23.853Z,7.05
2022-11-05T13:57:09.810Z,9.32
2022-11-05T13:59:55.359Z,6.68
2022-11-05T14:02:23.493Z,8.50
2022-11-05T14:04:55.500Z,6.43
2022-11-05T14:07:26.498Z,7.75
2022-11-05T14:09:57.547Z,6.90
2022-11-05T14:12:28.689Z,6.45
2022-11-05T14:14:59.096Z,7.00
2022-11-05T14:17:27.592Z,4.53
2022-11-05T14:20:06.553Z,6.38
2022-11-05T14:22:33.566Z,7.60
2022-11-05T14:25:01.142Z,5.95
2022-11-05T14:27:34.323Z,7.78
2022-11-05T14:30:01.452Z,8.55
2022-11-05T14:32:29.523Z,10.27
2022-11-05T14:35:23.450Z,4.32
2022-11-05T14:37:56.698Z,5.13
2022-11-05T14:40:50.030Z,8.82
2022-11-05T14:43:24.126Z,3.45
2022-11-05T14:46:00.906Z,4.22
2022-11-05T14:48:31.539Z,5.00
2022-11-05T14:50:58.560Z,5.03
2022-11-05T14:53:28.556Z,8.13
2022-11-05T14:56:03.157Z,8.55
2022-11-05T14:58:31.446Z,4.20
2022-11-05T15:00:58.772Z,8.20
2022-11-05T15:03:45.926Z,4.32
2022-11-05T15:06:30.631Z,5.55
2022-11-05T15:08:59.001Z,6.25
2022-11-05T15:11:37.601Z,8.75
2022-11-05T15:14:18.796Z,7.20
2022-11-05T15:16:48.801Z,7.72
2022-11-05T15:19:22.264Z,10.25
2022-11-05T15:21:49.261Z,6.05
2022-11-05T15:24:16.572Z,8.07
2022-11-05T15:27:02.469Z,3.63
2022-11-05T15:29:30.501Z,6.82
2022-11-05T15:31:57.587Z,5.63
2022-11-05T15:34:35.537Z,5.20
2022-11-05T15:37:03.477Z,11.05
2022-11-05T15:39:31.696Z,10.18
2022-11-05T15:42:02.774Z,4.13
2022-11-05T15:44:30.862Z,6.35
2022-11-05T15:47:16.137Z,9.50
2022-11-05T15:49:44.080Z,8.32
2022-11-05T15:52:11.990Z,5.70
2022-11-05T15:54:39.096Z,14.95
2022-11-05T15:57:06.100Z,6.70
2022-11-05T15:59:34.980Z,5.13
2022-11-05T16:02:14.455Z,7.75
2022-11-05T16:04:41.543Z,4.63
2022-11-05T16:07:09.280Z,6.85
2022-11-05T16:09:37.120Z,12.63
2022-11-05T16:12:13.354Z,5.05
2022-11-05T16:14:40.634Z,4.53
2022-11-05T16:17:11.757Z,4.85
2022-11-05T16:19:40.897Z,8.65
2022-11-05T16:22:08.106Z,9.30
2022-11-05T16:24:35.175Z,3.90
2022-11-05T16:27:03.947Z,19.10
2022-11-05T16:29:31.161Z,8.75
2022-11-05T16:31:58.681Z,7.88
2022-11-05T16:34:25.756Z,6.43
2022-11-05T16:36:54.372Z,15.25
2022-11-05T16:39:21.422Z,9.50
2022-11-05T16:41:48.505Z,9.57
2022-11-05T16:44:15.584Z,5.78
2022-11-05T16:46:43.010Z,7.80
2022-11-05T16:49:12.163Z,5.90
2022-11-05T16:51:39.250Z,5.68
2022-11-05T16:54:06.862Z,5.57
2022-11-05T16:56:34.051Z,11.95
2022-11-05T16:59:01.038Z,10.90
2022-11-05T17:01:28.171Z,9.85
2022-11-05T17:03:55.424Z,6.38
2022-11-05T17:06:22.506Z,8.13
2022-11-05T17:08:49.556Z,7.13
2022-11-05T17:11:17.279Z,7.57
2022-11-05T17:13:44.430Z,14.45
2022-11-05T17:16:15.749Z,8.88
2022-11-05T17:18:42.914Z,13.82
2022-11-05T17:21:10.208Z,9.30
2022-11-05T17:23:37.279Z,7.20
2022-11-05T17:26:05.345Z,10.25
2022-11-05T17:28:32.814Z,17.73
2022-11-05T17:31:03.354Z,8.32
2022-11-05T17:35:57.422Z,12.82
2022-11-05T17:38:24.868Z,6.05
2022-11-05T17:40:52.022Z,8.27
2022-11-05T17:43:19.359Z,7.25
2022-11-05T17:45:50.351Z,5.50
2022-11-05T17:48:17.645Z,13.65
2022-11-05T17:50:45.164Z,7.20
2022-11-05T17:53:12.768Z,7.70
2022-11-05T17:55:43.468Z,8.07
2022-11-05T17:58:10.698Z,11.10
2022-11-05T18:00:37.882Z,8.77
2022-11-05T18:03:04.922Z,9.35
2022-11-05T18:05:31.991Z,8.35
2022-11-05T18:07:59.083Z,9.18
2022-11-05T18:10:26.114Z,11.98
2022-11-05T18:12:53.185Z,6.80
2022-11-05T18:15:20.279Z,10.82
2022-11-05T18:17:47.381Z,11.05
2022-11-05T18:20:18.942Z,8.75
2022-11-05T18:22:46.567Z,13.48
2022-11-05T18:25:14.050Z,11.35
2022-11-05T18:27:41.270Z,6.07
2022-11-05T18:30:08.822Z,8.43
2022-11-05T18:32:35.856Z,6.68
2022-11-05T18:35:02.912Z,10.02
2022-11-05T18:37:29.985Z,12.20
2022-11-05T18:39:57.009Z,8.85
2022-11-05T18:42:25.232Z,10.30
2022-11-05T18:44:52.326Z,14.07
2022-11-05T18:47:19.400Z,10.80
2022-11-05T18:49:46.439Z,7.93
2022-11-05T18:52:13.580Z,13.32
2022-11-05T18:54:40.805Z,9.68
2022-11-05T18:57:07.829Z,9.43
2022-11-05T18:59:38.584Z,17.63
2022-11-05T19:02:06.675Z,17.25
2022-11-05T19:04:35.370Z,18.15
2022-11-05T19:07:05.084Z,12.50
2022-11-05T19:09:32.509Z,16.83
2022-11-05T19:11:59.530Z,15.02
2022-11-05T19:14:26.537Z,16.65
2022-11-05T19:16:53.563Z,15.23
2022-11-05T19:19:20.590Z,16.02
2022-11-05T19:21:47.594Z,19.25
2022-11-05T19:24:17.622Z,17.75
2022-11-05T19:26:44.711Z,21.40
2022-11-05T19:29:11.813Z,24.48
2022-11-05T19:31:38.949Z,23.73
2022-11-05T19:34:05.978Z,22.20
2022-11-05T19:36:33.298Z,23.38
2022-11-05T19:39:06.190Z,17.10
2022-11-05T19:41:33.234Z,16.98
2022-11-05T19:44:01.675Z,14.25
2022-11-05T19:46:28.938Z,11.50
2022-11-05T19:48:56.191Z,11.75
2022-11-05T19:51:24.111Z,9.50
2022-11-05T19:53:55.006Z,18.55
2022-11-05T19:56:26.350Z,12.07
2022-11-05T19:58:53.812Z,11.15
2022-11-05T20:01:21.322Z,15.40
2022-11-05T20:03:48.580Z,10.88
2022-11-05T20:06:16.616Z,15.18
2022-11-05T20:09:07.148Z,15.48
2022-11-05T20:11:31.613Z,12.65
2022-11-05T20:13:58.750Z,13.98
2022-11-05T20:16:26.981Z,16.45
2022-11-05T20:18:54.033Z,11.75
2022-11-05T20:21:21.426Z,13.65
2022-11-05T20:23:48.651Z,11.80
2022-11-05T20:26:16.028Z,19.10
2022-11-05T20:28:43.753Z,29.80
2022-11-05T20:31:11.768Z,21.60
2022-11-05T20:33:39.273Z,16.58
2022-11-05T20:36:09.355Z,19.58
2022-11-05T20:38:36.838Z,33.28
2022-11-05T20:41:07.955Z,25.70
2022-11-05T20:43:35.179Z,29.38
2022-11-05T20:46:02.532Z,27.80
2022-11-05T20:48:33.316Z,28.08
2022-11-05T20:51:00.493Z,26.27
2022-11-05T20:53:27.754Z,34.25
2022-11-05T20:55:55.085Z,33.30
2022-11-05T20:58:22.339Z,37.28
2022-11-05T21:00:50.839Z,38.50
2022-11-05T21:03:18.186Z,42.53
2022-11-05T21:05:54.268Z,44.85
2022-11-05T21:08:22.434Z,46.83
2022-11-05T21:10:51.434Z,51.05
2022-11-05T21:13:18.842Z,56.22
2022-11-05T21:15:50.300Z,51.13
2022-11-05T21:18:18.156Z,48.58
2022-11-05T21:20:45.797Z,53.15
2022-11-05T21:23:13.086Z,53.97
2022-11-05T21:25:43.442Z,49.15
2022-11-05T21:28:11.215Z,63.88
2022-11-05T21:30:39.182Z,52.95
2022-11-05T21:33:06.355Z,53.80
2022-11-05T21:35:33.427Z,52.72
2022-11-05T21:38:00.649Z,57.90
2022-11-05T21:40:27.663Z,54.42
2022-11-05T21:42:54.677Z,52.20
2022-11-05T21:45:21.705Z,47.70
2022-11-05T21:47:48.732Z,50.72
2022-11-05T21:50:20.841Z,52.45
2022-11-05T21:53:07.591Z,60.25
2022-11-05T21:55:53.540Z,54.22
2022-11-05T21:58:39.704Z,55.53
2022-11-05T22:01:07.097Z,52.10
2022-11-05T22:03:34.136Z,51.40
2022-11-05T22:06:01.388Z,47.05
2022-11-05T22:08:28.592Z,48.55
2022-11-05T22:10:55.832Z,50.40
2022-11-05T22:13:22.877Z,47.05
2022-11-05T22:15:59.553Z,44.33
2022-11-05T22:18:26.692Z,41.38
2022-11-05T22:20:53.771Z,42.88
2022-11-05T22:23:20.769Z,42.50
2022-11-05T22:25:47.758Z,40.92
2022-11-05T22:28:15.035Z,40.60
2022-11-05T22:30:42.258Z,40.03
2022-11-05T22:33:09.278Z,43.72
2022-11-05T22:35:36.272Z,40.35
2022-11-05T22:38:03.347Z,37.90
2022-11-05T22:40:30.360Z,43.92
2022-11-05T22:42:57.423Z,43.33
2022-11-05T22:45:24.456Z,40.83
2022-11-05T22:47:51.529Z,41.47
2022-11-05T22:50:18.572Z,34.85
2022-11-05T22:52:45.999Z,41.92
2022-11-05T22:55:13.006Z,42.00
2022-11-05T22:57:40.015Z,34.35
2022-11-05T23:00:08.460Z,34.47
2022-11-05T23:02:35.543Z,38.83
2022-11-05T23:05:02.662Z,43.45
2022-11-05T23:07:48.455Z,38.38
2022-11-05T23:10:34.082Z,33.85
2022-11-05T23:13:01.074Z,37.85
2022-11-05T23:15:46.854Z,33.95
2022-11-05T23:18:32.641Z,36.55
2022-11-05T23:21:22.837Z,33.97
2022-11-05T23:24:05.556Z,30.08
2022-11-05T23:26:51.838Z,31.83
2022-11-05T23:29:22.640Z,36.45
2022-11-05T23:32:08.849Z,33.08
2022-11-05T23:34:35.885Z,25.67
2022-11-05T23:37:21.456Z,31.05
2022-11-05T23:39:48.483Z,33.50
2022-11-05T23:42:34.382Z,37.20
2022-11-05T23:45:20.011Z,33.55
2022-11-05T23:48:05.754Z,28.80
2022-11-05T23:50:37.134Z,28.13
2022-11-05T23:53:06.698Z,27.88
2022-11-05T23:55:33.713Z,36.25
2022-11-05T23:58:00.730Z,32.90
